Star — ESCJ — position and weather

sailwx.info

Track history (hours):
 
Tides and Currents Weather Stations Pressure Air Temp Water Temp Dewpoint Dewpoint Depression Visibility Wind Speed Wind Dir Waves Ship Positions

Star

Last reported at 2018-Jan-21 16:01 UTC. Time now 2018-Jan-21 16:19 UTC.
Position N 60°02' E 024°54'.

Length 186 m; draft 6.3 m.

Type: Ship (hazmat cat C). MMSI: 276672000.

Date/timePositionNaut miles runAvg speedWind from/ knotsBaromVisibWave heightAir tempDewpointWater temp
2018-Jan-21 16:01N 60°02' E 024°54'1122.8
2018-Jan-21 15:31N 59°51' E 024°51'1223.1
2018-Jan-21 15:01N 59°40' E 024°44'1121.5
2018-Jan-21 14:30N 59°29' E 024°46'2 4.2
2018-Jan-21 13:59N 59°27' E 024°46'0 0.0
2018-Jan-21 13:29N 59°27' E 024°46'816.2
2018-Jan-21 13:01N 59°34' E 024°41'1020.8
2018-Jan-21 12:30N 59°44' E 024°47'1122.2
2018-Jan-21 12:01N 59°55' E 024°52'1121.7
2018-Jan-21 11:30N 60°06' E 024°54'3 6.4
2018-Jan-21 11:00N 60°09' E 024°55'0 0.0
2018-Jan-21 10:30N 60°09' E 024°55'714.1
2018-Jan-21 10:00N 60°02' E 024°54'1122.6
2018-Jan-21 09:31N 59°51' E 024°51'1122.6
2018-Jan-21 09:01N 59°40' E 024°44'1121.4
2018-Jan-21 08:31N 59°29' E 024°46'3 5.0
2018-Jan-21 07:58N 59°27' E 024°46'0 0.0
2018-Jan-21 07:30N 59°27' E 024°46'714.4
2018-Jan-21 07:00N 59°33' E 024°42'1020.5
2018-Jan-21 06:31N 59°43' E 024°46'1122.0
2018-Jan-21 06:00N 59°54' E 024°52'1122.0
2018-Jan-21 05:30N 60°05' E 024°54'4 7.4
2018-Jan-21 04:59N 60°09' E 024°55'0 0.0
2018-Jan-21 04:29N 60°09' E 024°55'0 0.0
2018-Jan-21 03:59N 60°09' E 024°55'0 0.0
2018-Jan-21 03:30N 60°09' E 024°55'0 0.0
2018-Jan-21 03:00N 60°09' E 024°55'0 0.0
2018-Jan-21 02:30N 60°09' E 024°55'0 0.0
2018-Jan-21 02:00N 60°09' E 024°55'0 0.0
2018-Jan-21 01:30N 60°09' E 024°55'0 0.0
2018-Jan-21 01:00N 60°09' E 024°55'0 0.0
2018-Jan-21 00:30N 60°09' E 024°55'0 0.0
2018-Jan-21 00:00N 60°09' E 024°55'0 0.0
2018-Jan-20 23:30N 60°09' E 024°55'0 0.0
2018-Jan-20 23:00N 60°09' E 024°55'0 0.0
2018-Jan-20 22:30N 60°09' E 024°55'713.5
2018-Jan-20 22:00N 60°02' E 024°54'1122.5
2018-Jan-20 21:30N 59°51' E 024°51'1122.6
2018-Jan-20 21:00N 59°40' E 024°45'1020.9
2018-Jan-20 20:31N 59°30' E 024°46'3 6.2
2018-Jan-20 20:01N 59°27' E 024°46'0 0.0
2018-Jan-20 19:30N 59°27' E 024°46'714.8
2018-Jan-20 19:00N 59°34' E 024°42'1121.1
2018-Jan-20 18:31N 59°44' E 024°47'10 3.3
2018-Jan-20 15:37N 59°53' E 024°52'222.5
2018-Jan-20 15:31N 59°51' E 024°50'1122.5
2018-Jan-20 15:01N 59°40' E 024°44'1121.3
2018-Jan-20 14:30N 59°29' E 024°46'3 5.5
2018-Jan-20 14:00N 59°27' E 024°46'0 0.0
2018-Jan-20 13:30N 59°27' E 024°46'815.8
2018-Jan-20 13:01N 59°34' E 024°41'1122.1
2018-Jan-20 12:31N 59°45' E 024°47'9 3.0
2018-Jan-20 09:36N 59°53' E 024°51'223.4
2018-Jan-20 09:30N 59°51' E 024°50'1223.1
2018-Jan-20 09:01N 59°40' E 024°44'1121.3
2018-Jan-20 08:30N 59°29' E 024°46'3 4.9
2018-Jan-20 08:00N 59°27' E 024°46'0 0.0
2018-Jan-20 07:30N 59°27' E 024°46'714.7
2018-Jan-20 07:01N 59°34' E 024°42'1121.5
2018-Jan-20 06:31N 59°44' E 024°47'10 1.1
2018-Jan-19 21:39N 59°54' E 024°52'424.5
2018-Jan-19 21:31N 59°50' E 024°50'1122.2
2018-Jan-19 21:00N 59°40' E 024°44'1121.0
2018-Jan-19 20:30N 59°29' E 024°46'3 4.8
2018-Jan-19 19:58N 59°27' E 024°46'0 0.0
2018-Jan-19 19:28N 59°27' E 024°46'816.6
2018-Jan-19 19:01N 59°34' E 024°41'1121.9
2018-Jan-19 18:31N 59°45' E 024°46'9 3.3
2018-Jan-19 15:39N 59°54' E 024°52'323.4
2018-Jan-19 15:31N 59°51' E 024°50'1223.0
2018-Jan-19 15:01N 59°40' E 024°44'1121.6
2018-Jan-19 14:31N 59°29' E 024°46'2 4.1
2018-Jan-19 13:59N 59°27' E 024°46'0 0.0
2018-Jan-19 13:30N 59°27' E 024°46'815.5
2018-Jan-19 13:01N 59°34' E 024°42'1121.3
2018-Jan-19 12:30N 59°44' E 024°47'9 3.0
2018-Jan-19 09:35N 59°53' E 024°51'229.5
2018-Jan-19 09:30N 59°51' E 024°51'1122.2
2018-Jan-19 09:01N 59°40' E 024°44'1121.7
2018-Jan-19 08:30N 59°29' E 024°46'3 5.0
2018-Jan-19 08:00N 59°27' E 024°46'0 0.0
2018-Jan-19 07:30N 59°27' E 024°46'714.5
2018-Jan-19 07:00N 59°33' E 024°42'1121.9
2018-Jan-19 06:31N 59°44' E 024°47'10 1.2
2018-Jan-18 21:40N 59°54' E 024°51'423.1
2018-Jan-18 21:31N 59°51' E 024°48'1223.4
2018-Jan-18 21:01N 59°40' E 024°41'1122.3
2018-Jan-18 20:30N 59°29' E 024°46'2 3.9
2018-Jan-18 20:00N 59°27' E 024°46'0 0.0
2018-Jan-18 19:30N 59°27' E 024°46'815.2
2018-Jan-18 19:00N 59°34' E 024°42'1121.6
2018-Jan-18 18:30N 59°44' E 024°49'1223.4
2018-Jan-18 18:00N 59°56' E 024°52'5 1.9
2018-Jan-18 15:31N 59°51' E 024°51'026.2
2018-Jan-18 15:30N 59°51' E 024°51'1123.1
2018-Jan-18 15:01N 59°40' E 024°44'1121.9
2018-Jan-18 14:30N 59°29' E 024°46'2 4.7
2018-Jan-18 13:59N 59°27' E 024°46'0 0.0
2018-Jan-18 13:30N 59°27' E 024°46'815.2
2018-Jan-18 13:01N 59°34' E 024°42'1121.6
2018-Jan-18 12:31N 59°44' E 024°47'7 2.3
2018-Jan-18 09:31N 59°51' E 024°51'023.7
2018-Jan-18 09:31N 59°51' E 024°50'1223.4
2018-Jan-18 09:00N 59°39' E 024°44'1121.5
2018-Jan-18 08:30N 59°29' E 024°46'2 4.2
2018-Jan-18 08:00N 59°27' E 024°46'0 0.0
2018-Jan-18 07:30N 59°27' E 024°46'816.0
2018-Jan-18 07:00N 59°34' E 024°41'1121.7
2018-Jan-18 06:30N 59°45' E 024°46'  
2018-Jan-12 15:01N 59°40' E 024°44'1122.4
2018-Jan-12 14:31N 59°29' E 024°46'2 3.4
2018-Jan-12 13:53N 59°27' E 024°46'0 0.0
2018-Jan-12 13:30N 59°27' E 024°46'613.1
2018-Jan-12 13:01N 59°33' E 024°43'1122.6
2018-Jan-12 12:31N 59°44' E 024°43'13 4.5
2018-Jan-12 09:42N 59°56' E 024°53'823.9
2018-Jan-12 09:21N 59°48' E 024°51'823.1
2018-Jan-12 09:01N 59°40' E 024°45'1122.0
2018-Jan-12 08:30N 59°29' E 024°46'2 4.8
2018-Jan-12 08:00N 59°27' E 024°46'0 0.0
2018-Jan-12 07:28N 59°27' E 024°46'716.0
2018-Jan-12 07:01N 59°34' E 024°42'1223.1
2018-Jan-12 06:31N 59°45' E 024°42'1223.8
2018-Jan-12 06:00N 59°56' E 024°53'13 8.7
2018-Jan-12 04:32N 60°09' E 024°55'0 0.0
2018-Jan-12 04:29N 60°09' E 024°55'0 0.0
2018-Jan-12 03:59N 60°09' E 024°55'0 0.0
2018-Jan-12 03:29N 60°09' E 024°55'0 0.0
2018-Jan-12 02:59N 60°09' E 024°55'0 0.0
2018-Jan-12 02:29N 60°09' E 024°55'0 0.0
2018-Jan-12 01:56N 60°09' E 024°55'0 0.0
2018-Jan-12 01:29N 60°09' E 024°55'0 0.0
2018-Jan-12 00:59N 60°09' E 024°55'0 0.0
2018-Jan-12 00:29N 60°09' E 024°55'0 0.0
2018-Jan-11 23:59N 60°09' E 024°55'0 0.0
2018-Jan-11 23:29N 60°09' E 024°55'0 0.0
2018-Jan-11 22:59N 60°09' E 024°55'0 0.0
2018-Jan-11 22:30N 60°09' E 024°55'714.2
2018-Jan-11 22:00N 60°02' E 024°54'1223.5
2018-Jan-11 21:31N 59°51' E 024°48'1223.6
2018-Jan-11 21:01N 59°39' E 024°40'1223.3
2018-Jan-11 20:30N 59°28' E 024°46'2 3.0
2018-Jan-11 19:59N 59°27' E 024°46'0 0.0
2018-Jan-11 19:28N 59°27' E 024°46'715.7
2018-Jan-11 19:00N 59°33' E 024°42'1122.0
2018-Jan-11 18:31N 59°44' E 024°47'1223.6
2018-Jan-11 18:01N 59°56' E 024°52'1122.0
2018-Jan-11 17:30N 60°07' E 024°54'2 4.5
2018-Jan-11 16:59N 60°09' E 024°55'0 0.0
2018-Jan-11 16:30N 60°09' E 024°55'612.5
2018-Jan-11 16:01N 60°03' E 024°54'  
Track history (hours):
 
Tides and Currents Weather Stations Pressure Air Temp Water Temp Dewpoint Dewpoint Depression Visibility Wind Speed Wind Dir Waves Ship Positions

Star

Last reported at 2018-Jan-21 16:01 UTC. Time now 2018-Jan-21 16:19 UTC.
Position N 60°02' E 024°54'.

Length 186 m; draft 6.3 m.

Type: Ship (hazmat cat C). MMSI: 276672000.

Date/timePositionNaut miles runAvg speedWind from/ knotsBaromVisibWave heightAir tempDewpointWater temp
2018-Jan-21 16:01N 60°02' E 024°54'1122.8
2018-Jan-21 15:31N 59°51' E 024°51'1223.1
2018-Jan-21 15:01N 59°40' E 024°44'1121.5
2018-Jan-21 14:30N 59°29' E 024°46'2 4.2
2018-Jan-21 13:59N 59°27' E 024°46'0 0.0
2018-Jan-21 13:29N 59°27' E 024°46'816.2
2018-Jan-21 13:01N 59°34' E 024°41'1020.8
2018-Jan-21 12:30N 59°44' E 024°47'1122.2
2018-Jan-21 12:01N 59°55' E 024°52'1121.7
2018-Jan-21 11:30N 60°06' E 024°54'3 6.4
2018-Jan-21 11:00N 60°09' E 024°55'0 0.0
2018-Jan-21 10:30N 60°09' E 024°55'714.1
2018-Jan-21 10:00N 60°02' E 024°54'1122.6
2018-Jan-21 09:31N 59°51' E 024°51'1122.6
2018-Jan-21 09:01N 59°40' E 024°44'1121.4
2018-Jan-21 08:31N 59°29' E 024°46'3 5.0
2018-Jan-21 07:58N 59°27' E 024°46'0 0.0
2018-Jan-21 07:30N 59°27' E 024°46'714.4
2018-Jan-21 07:00N 59°33' E 024°42'1020.5
2018-Jan-21 06:31N 59°43' E 024°46'1122.0
2018-Jan-21 06:00N 59°54' E 024°52'1122.0
2018-Jan-21 05:30N 60°05' E 024°54'4 7.4
2018-Jan-21 04:59N 60°09' E 024°55'0 0.0
2018-Jan-21 04:29N 60°09' E 024°55'0 0.0
2018-Jan-21 03:59N 60°09' E 024°55'0 0.0
2018-Jan-21 03:30N 60°09' E 024°55'0 0.0
2018-Jan-21 03:00N 60°09' E 024°55'0 0.0
2018-Jan-21 02:30N 60°09' E 024°55'0 0.0
2018-Jan-21 02:00N 60°09' E 024°55'0 0.0
2018-Jan-21 01:30N 60°09' E 024°55'0 0.0
2018-Jan-21 01:00N 60°09' E 024°55'0 0.0
2018-Jan-21 00:30N 60°09' E 024°55'0 0.0
2018-Jan-21 00:00N 60°09' E 024°55'0 0.0
2018-Jan-20 23:30N 60°09' E 024°55'0 0.0
2018-Jan-20 23:00N 60°09' E 024°55'0 0.0
2018-Jan-20 22:30N 60°09' E 024°55'713.5
2018-Jan-20 22:00N 60°02' E 024°54'1122.5
2018-Jan-20 21:30N 59°51' E 024°51'1122.6
2018-Jan-20 21:00N 59°40' E 024°45'1020.9
2018-Jan-20 20:31N 59°30' E 024°46'3 6.2
2018-Jan-20 20:01N 59°27' E 024°46'0 0.0
2018-Jan-20 19:30N 59°27' E 024°46'714.8
2018-Jan-20 19:00N 59°34' E 024°42'1121.1
2018-Jan-20 18:31N 59°44' E 024°47'10 3.3
2018-Jan-20 15:37N 59°53' E 024°52'222.5
2018-Jan-20 15:31N 59°51' E 024°50'1122.5
2018-Jan-20 15:01N 59°40' E 024°44'1121.3
2018-Jan-20 14:30N 59°29' E 024°46'3 5.5
2018-Jan-20 14:00N 59°27' E 024°46'0 0.0
2018-Jan-20 13:30N 59°27' E 024°46'815.8
2018-Jan-20 13:01N 59°34' E 024°41'1122.1
2018-Jan-20 12:31N 59°45' E 024°47'9 3.0
2018-Jan-20 09:36N 59°53' E 024°51'223.4
2018-Jan-20 09:30N 59°51' E 024°50'1223.1
2018-Jan-20 09:01N 59°40' E 024°44'1121.3
2018-Jan-20 08:30N 59°29' E 024°46'3 4.9
2018-Jan-20 08:00N 59°27' E 024°46'0 0.0
2018-Jan-20 07:30N 59°27' E 024°46'714.7
2018-Jan-20 07:01N 59°34' E 024°42'1121.5
2018-Jan-20 06:31N 59°44' E 024°47'10 1.1
2018-Jan-19 21:39N 59°54' E 024°52'424.5
2018-Jan-19 21:31N 59°50' E 024°50'1122.2
2018-Jan-19 21:00N 59°40' E 024°44'1121.0
2018-Jan-19 20:30N 59°29' E 024°46'3 4.8
2018-Jan-19 19:58N 59°27' E 024°46'0 0.0
2018-Jan-19 19:28N 59°27' E 024°46'816.6
2018-Jan-19 19:01N 59°34' E 024°41'1121.9
2018-Jan-19 18:31N 59°45' E 024°46'9 3.3
2018-Jan-19 15:39N 59°54' E 024°52'323.4
2018-Jan-19 15:31N 59°51' E 024°50'1223.0
2018-Jan-19 15:01N 59°40' E 024°44'1121.6
2018-Jan-19 14:31N 59°29' E 024°46'2 4.1
2018-Jan-19 13:59N 59°27' E 024°46'0 0.0
2018-Jan-19 13:30N 59°27' E 024°46'815.5
2018-Jan-19 13:01N 59°34' E 024°42'1121.3
2018-Jan-19 12:30N 59°44' E 024°47'9 3.0
2018-Jan-19 09:35N 59°53' E 024°51'229.5
2018-Jan-19 09:30N 59°51' E 024°51'1122.2
2018-Jan-19 09:01N 59°40' E 024°44'1121.7
2018-Jan-19 08:30N 59°29' E 024°46'3 5.0
2018-Jan-19 08:00N 59°27' E 024°46'0 0.0
2018-Jan-19 07:30N 59°27' E 024°46'714.5
2018-Jan-19 07:00N 59°33' E 024°42'1121.9
2018-Jan-19 06:31N 59°44' E 024°47'10 1.2
2018-Jan-18 21:40N 59°54' E 024°51'423.1
2018-Jan-18 21:31N 59°51' E 024°48'1223.4
2018-Jan-18 21:01N 59°40' E 024°41'1122.3
2018-Jan-18 20:30N 59°29' E 024°46'2 3.9
2018-Jan-18 20:00N 59°27' E 024°46'0 0.0
2018-Jan-18 19:30N 59°27' E 024°46'815.2
2018-Jan-18 19:00N 59°34' E 024°42'1121.6
2018-Jan-18 18:30N 59°44' E 024°49'1223.4
2018-Jan-18 18:00N 59°56' E 024°52'5 1.9
2018-Jan-18 15:31N 59°51' E 024°51'026.2
2018-Jan-18 15:30N 59°51' E 024°51'1123.1
2018-Jan-18 15:01N 59°40' E 024°44'1121.9
2018-Jan-18 14:30N 59°29' E 024°46'2 4.7
2018-Jan-18 13:59N 59°27' E 024°46'0 0.0
2018-Jan-18 13:30N 59°27' E 024°46'815.2
2018-Jan-18 13:01N 59°34' E 024°42'1121.6
2018-Jan-18 12:31N 59°44' E 024°47'7 2.3
2018-Jan-18 09:31N 59°51' E 024°51'023.7
2018-Jan-18 09:31N 59°51' E 024°50'1223.4
2018-Jan-18 09:00N 59°39' E 024°44'1121.5
2018-Jan-18 08:30N 59°29' E 024°46'2 4.2
2018-Jan-18 08:00N 59°27' E 024°46'0 0.0
2018-Jan-18 07:30N 59°27' E 024°46'816.0
2018-Jan-18 07:00N 59°34' E 024°41'1121.7
2018-Jan-18 06:30N 59°45' E 024°46'  
2018-Jan-12 15:01N 59°40' E 024°44'1122.4
2018-Jan-12 14:31N 59°29' E 024°46'2 3.4
2018-Jan-12 13:53N 59°27' E 024°46'0 0.0
2018-Jan-12 13:30N 59°27' E 024°46'613.1
2018-Jan-12 13:01N 59°33' E 024°43'1122.6
2018-Jan-12 12:31N 59°44' E 024°43'13 4.5
2018-Jan-12 09:42N 59°56' E 024°53'823.9
2018-Jan-12 09:21N 59°48' E 024°51'823.1
2018-Jan-12 09:01N 59°40' E 024°45'1122.0
2018-Jan-12 08:30N 59°29' E 024°46'2 4.8
2018-Jan-12 08:00N 59°27' E 024°46'0 0.0
2018-Jan-12 07:28N 59°27' E 024°46'716.0
2018-Jan-12 07:01N 59°34' E 024°42'1223.1
2018-Jan-12 06:31N 59°45' E 024°42'1223.8
2018-Jan-12 06:00N 59°56' E 024°53'13 8.7
2018-Jan-12 04:32N 60°09' E 024°55'0 0.0
2018-Jan-12 04:29N 60°09' E 024°55'0 0.0
2018-Jan-12 03:59N 60°09' E 024°55'0 0.0
2018-Jan-12 03:29N 60°09' E 024°55'0 0.0
2018-Jan-12 02:59N 60°09' E 024°55'0 0.0
2018-Jan-12 02:29N 60°09' E 024°55'0 0.0
2018-Jan-12 01:56N 60°09' E 024°55'0 0.0
2018-Jan-12 01:29N 60°09' E 024°55'0 0.0
2018-Jan-12 00:59N 60°09' E 024°55'0 0.0
2018-Jan-12 00:29N 60°09' E 024°55'0 0.0
2018-Jan-11 23:59N 60°09' E 024°55'0 0.0
2018-Jan-11 23:29N 60°09' E 024°55'0 0.0
2018-Jan-11 22:59N 60°09' E 024°55'0 0.0
2018-Jan-11 22:30N 60°09' E 024°55'714.2
2018-Jan-11 22:00N 60°02' E 024°54'1223.5
2018-Jan-11 21:31N 59°51' E 024°48'1223.6
2018-Jan-11 21:01N 59°39' E 024°40'1223.3
2018-Jan-11 20:30N 59°28' E 024°46'2 3.0
2018-Jan-11 19:59N 59°27' E 024°46'0 0.0
2018-Jan-11 19:28N 59°27' E 024°46'715.7
2018-Jan-11 19:00N 59°33' E 024°42'1122.0
2018-Jan-11 18:31N 59°44' E 024°47'1223.6
2018-Jan-11 18:01N 59°56' E 024°52'1122.0
2018-Jan-11 17:30N 60°07' E 024°54'2 4.5
2018-Jan-11 16:59N 60°09' E 024°55'0 0.0
2018-Jan-11 16:30N 60°09' E 024°55'612.5
2018-Jan-11 16:01N 60°03' E 024°54'  

Dump ship's entire track history